Time;durP1;ratioP1;P1;durP2;ratioP2;P2;SDS_P1;SDS_P2;PMS_P1;PMS_P2;Temp;Humidity;BMP_temperature;BMP_pressure;BME280_temperature;BME280_humidity;BME280_pressure;Samples;Min_cycle;Max_cycle;Signal;HPM_P1;HPM_P2
2021/06/21 00:02:26;;;;;;;17.17;10.57;;;;;;;23.65;70.10;99901.44;5071163;28;20048;-84
2021/06/21 00:04:55;;;;;;;15.93;10.30;;;;;;;23.53;70.93;99894.88;5076871;28;20047;-81
2021/06/21 00:07:24;;;;;;;13.60;10.73;;;;;;;23.52;71.35;99894.06;5047597;28;20670;-80
2021/06/21 00:09:53;;;;;;;19.00;11.10;;;;;;;23.42;72.24;99891.69;5090809;28;20048;-82
2021/06/21 00:12:21;;;;;;;18.48;10.90;;;;;;;23.32;73.11;99888.47;5074695;28;20105;-80
2021/06/21 00:14:51;;;;;;;16.45;11.60;;;;;;;23.24;73.78;99877.88;5070219;28;20055;-81
2021/06/21 00:17:20;;;;;;;16.42;12.13;;;;;;;23.21;74.31;99876.38;5055869;28;20043;-80
2021/06/21 00:20:42;;;;;;;18.42;12.38;;;;;;;23.12;75.13;99864.09;5070793;28;20116;-81
2021/06/21 00:23:11;;;;;;;19.90;12.18;;;;;;;23.03;76.20;99851.81;5072611;28;20040;-81
2021/06/21 00:26:42;;;;;;;14.68;11.90;;;;;;;22.99;76.23;99839.78;5071095;28;20041;-81
2021/06/21 00:29:10;;;;;;;18.95;13.02;;;;;;;22.92;76.44;99837.06;5054999;28;20075;-80
2021/06/21 00:31:40;;;;;;;19.90;11.98;;;;;;;22.92;76.95;99837.06;5074399;28;20109;-81
2021/06/21 00:34:08;;;;;;;19.65;12.93;;;;;;;22.83;77.71;99831.94;5054247;28;20052;-80
2021/06/21 00:36:36;;;;;;;16.27;13.15;;;;;;;22.83;77.58;99814.00;5051186;28;20040;-78
2021/06/21 00:39:07;;;;;;;16.35;13.45;;;;;;;22.75;78.10;99811.44;5054721;28;20110;-80
2021/06/21 00:41:37;;;;;;;20.05;13.65;;;;;;;22.68;78.92;99799.78;5058412;28;20063;-80
2021/06/21 00:44:08;;;;;;;14.82;12.57;;;;;;;22.62;79.56;99809.41;5054635;28;20052;-78
2021/06/21 00:46:37;;;;;;;18.38;13.30;;;;;;;22.59;79.89;99817.00;5053463;28;20114;-81
2021/06/21 00:49:05;;;;;;;21.98;14.25;;;;;;;22.56;80.12;99812.00;5056179;28;20400;-83
2021/06/21 00:51:33;;;;;;;16.88;13.60;;;;;;;22.50;80.46;99830.53;5062497;28;20049;-81
2021/06/21 00:54:01;;;;;;;14.52;12.90;;;;;;;22.49;80.30;99822.66;5046441;28;20048;-83
2021/06/21 00:56:31;;;;;;;15.30;12.98;;;;;;;22.47;80.45;99814.00;5070498;28;20055;-81
2021/06/21 00:59:05;;;;;;;16.48;13.00;;;;;;;22.40;80.11;99818.44;5067704;28;20055;-81
2021/06/21 01:01:32;;;;;;;22.55;12.43;;;;;;;22.34;80.01;99814.66;5051809;28;20131;-81
2021/06/21 01:04:02;;;;;;;19.67;13.45;;;;;;;22.34;80.07;99813.81;5076034;28;20094;-81
2021/06/21 01:06:29;;;;;;;14.55;11.77;;;;;;;22.31;80.15;99819.53;5051059;28;20039;-79
2021/06/21 01:09:05;;;;;;;17.02;11.60;;;;;;;22.31;79.66;99819.53;5080686;28;20041;-80
2021/06/21 01:12:25;;;;;;;15.10;11.10;;;;;;;22.34;79.14;99828.06;5040202;28;20052;-79
2021/06/21 01:15:02;;;;;;;21.02;12.82;;;;;;;22.26;79.57;99835.38;5018527;28;20058;-83
2021/06/21 01:17:39;;;;;;;15.98;11.45;;;;;;;22.24;79.48;99836.38;5008416;28;20108;-80
2021/06/21 01:20:24;;;;;;;14.63;11.80;;;;;;;22.23;79.62;99834.69;5023825;28;20504;-81
2021/06/21 01:23:10;;;;;;;;;;;;;;;22.19;79.78;99830.72;5053374;28;20044;-81
2021/06/21 01:25:42;;;;;;;19.58;11.75;;;;;;;22.22;79.37;99834.91;5069769;28;20275;-84
2021/06/21 01:28:40;;;;;;;13.18;11.02;;;;;;;22.13;79.66;99830.63;5043029;28;20044;-81
2021/06/21 01:31:19;;;;;;;14.85;10.80;;;;;;;22.18;79.30;99822.88;5049880;28;20831;-80
2021/06/21 01:33:48;;;;;;;15.50;10.70;;;;;;;22.16;79.41;99830.28;5044807;28;20435;-80
2021/06/21 01:36:17;;;;;;;12.13;10.57;;;;;;;22.10;79.34;99839.84;5067535;28;20429;-80
2021/06/21 01:38:52;;;;;;;18.38;11.65;;;;;;;22.08;79.70;99841.88;5062273;28;20056;-81
2021/06/21 01:41:23;;;;;;;14.93;10.88;;;;;;;22.08;79.88;99838.38;5082537;28;20127;-79
2021/06/21 01:43:52;;;;;;;19.42;11.10;;;;;;;22.04;79.68;99835.22;5068406;28;20489;-80
2021/06/21 01:46:20;;;;;;;17.95;11.57;;;;;;;22.02;79.27;99831.91;5067717;28;20044;-81
2021/06/21 01:48:51;;;;;;;19.40;10.32;;;;;;;22.00;79.72;99829.38;5047759;28;20053;-80
2021/06/21 01:51:49;;;;;;;14.27;11.10;;;;;;;21.93;79.83;99835.66;5057934;28;20056;-83
2021/06/21 01:54:23;;;;;;;19.52;10.25;;;;;;;21.99;79.54;99824.22;5043940;28;20059;-85
2021/06/21 01:56:54;;;;;;;16.67;10.73;;;;;;;22.03;79.47;99833.56;5062484;28;20058;-80
2021/06/21 01:59:24;;;;;;;13.10;9.85;;;;;;;22.09;78.97;99832.81;5052133;28;20106;-82
2021/06/21 02:01:56;;;;;;;18.48;11.93;;;;;;;22.08;79.23;99844.56;5059523;28;20071;-82
2021/06/21 02:04:29;;;;;;;15.50;10.60;;;;;;;22.08;79.10;99847.25;5051314;28;20538;-82
2021/06/21 02:06:59;;;;;;;14.63;11.05;;;;;;;21.98;79.97;99849.38;5057420;28;20064;-82
2021/06/21 02:09:30;;;;;;;19.35;11.95;;;;;;;21.96;80.21;99849.53;5068737;28;20049;-83
2021/06/21 02:12:03;;;;;;;13.00;11.60;;;;;;;21.95;80.35;99866.63;5072506;28;20063;-83
2021/06/21 02:14:40;;;;;;;16.45;11.48;;;;;;;21.93;80.86;99874.03;5054499;28;20036;-81
2021/06/21 02:17:08;;;;;;;17.17;11.88;;;;;;;21.97;80.77;99871.81;5073704;28;20173;-80
2021/06/21 02:19:39;;;;;;;20.45;12.68;;;;;;;22.01;80.52;99889.19;5074104;28;20052;-79
2021/06/21 02:22:08;;;;;;;17.20;12.93;;;;;;;21.94;80.98;99891.78;5038687;28;20114;-81
2021/06/21 02:24:50;;;;;;;14.95;12.05;;;;;;;21.95;81.40;99889.94;5077910;28;20066;-82
2021/06/21 02:27:20;;;;;;;19.80;13.50;;;;;;;21.98;80.83;99890.41;5068639;28;20106;-81
2021/06/21 02:29:51;;;;;;;17.75;12.95;;;;;;;21.85;82.21;99886.69;5062470;28;20122;-81
2021/06/21 02:32:20;;;;;;;16.23;13.23;;;;;;;21.67;84.28;99871.75;5064536;28;20099;-82
2021/06/21 02:34:55;;;;;;;18.10;13.77;;;;;;;21.44;85.89;99876.31;5061801;28;20398;-84
2021/06/21 02:37:22;;;;;;;19.65;14.85;;;;;;;21.33;87.16;99890.09;5075789;28;20040;-82
2021/06/21 02:39:51;;;;;;;24.48;15.10;;;;;;;21.14;88.53;99907.41;5082955;28;20414;-81
2021/06/21 02:42:19;;;;;;;27.30;16.00;;;;;;;21.15;88.74;99933.16;5057381;28;20086;-80
2021/06/21 02:44:46;;;;;;;21.67;14.80;;;;;;;21.09;89.73;99939.22;5070242;28;20055;-80
2021/06/21 02:47:16;;;;;;;23.85;15.93;;;;;;;21.29;90.33;99928.91;5047235;28;20047;-80
2021/06/21 02:49:47;;;;;;;31.92;17.88;;;;;;;20.96;94.71;99905.00;5072630;28;20079;-81
2021/06/21 02:52:37;;;;;;;23.50;16.25;;;;;;;20.80;94.76;99962.06;5066584;28;20035;-82
2021/06/21 02:55:12;;;;;;;27.70;19.00;;;;;;;20.92;100.00;100072.25;5078755;28;20047;-83
2021/06/21 02:58:19;;;;;;;30.83;21.25;;;;;;;20.67;100.00;100056.25;5064948;28;20048;-82
2021/06/21 03:00:50;;;;;;;24.10;19.15;;;;;;;20.68;100.00;100067.78;5054956;28;20068;-84
2021/06/21 03:03:23;;;;;;;26.48;22.30;;;;;;;20.76;100.00;100048.19;5046379;28;20064;-82
2021/06/21 03:05:53;;;;;;;28.85;22.17;;;;;;;20.71;100.00;100032.66;5062240;28;20166;-83
2021/06/21 03:08:21;;;;;;;26.15;22.98;;;;;;;20.76;100.00;100019.63;5065007;28;20044;-82
2021/06/21 03:10:49;;;;;;;26.55;21.52;;;;;;;20.82;100.00;100024.28;5048130;28;20037;-84
2021/06/21 03:13:19;;;;;;;22.13;19.52;;;;;;;20.81;100.00;100011.09;5056908;28;20062;-86
2021/06/21 03:15:50;;;;;;;25.58;21.20;;;;;;;20.86;100.00;100001.53;5060852;28;20056;-82
2021/06/21 03:18:22;;;;;;;26.73;23.98;;;;;;;20.84;100.00;99992.00;5043085;28;20048;-83
2021/06/21 03:21:19;;;;;;;22.27;20.05;;;;;;;20.87;100.00;99973.75;5073199;28;20052;-81
2021/06/21 03:23:56;;;;;;;23.38;19.83;;;;;;;21.01;100.00;99964.16;5049741;28;20473;-80
2021/06/21 03:26:26;;;;;;;24.80;20.90;;;;;;;20.99;100.00;99964.34;5056455;28;20052;-81
2021/06/21 03:28:56;;;;;;;21.55;19.48;;;;;;;21.00;100.00;99962.50;5073267;28;20059;-82
2021/06/21 03:31:25;;;;;;;24.58;18.90;;;;;;;21.10;100.00;99960.44;5066908;28;20074;-82
2021/06/21 03:33:54;;;;;;;21.67;19.40;;;;;;;21.13;100.00;99957.44;5060976;28;20056;-85
2021/06/21 03:36:21;;;;;;;25.17;18.45;;;;;;;21.13;100.00;99954.75;5085083;28;20058;-86
2021/06/21 03:38:49;;;;;;;25.60;18.90;;;;;;;21.24;100.00;99932.09;5065346;28;20115;-87
2021/06/21 03:41:16;;;;;;;18.00;16.27;;;;;;;21.32;100.00;99932.09;5080052;28;20032;-84
2021/06/21 03:43:43;;;;;;;25.45;16.92;;;;;;;21.27;100.00;99923.72;5095052;28;20032;-88
2021/06/21 03:46:11;;;;;;;15.82;14.13;;;;;;;21.29;99.05;99921.69;5089797;28;20040;-82
2021/06/21 03:48:38;;;;;;;16.50;12.85;;;;;;;21.24;97.49;99913.38;5081752;28;20487;-81
2021/06/21 03:51:18;;;;;;;17.77;12.52;;;;;;;21.22;97.46;99900.16;5070628;28;20074;-82
2021/06/21 03:53:51;;;;;;;14.30;12.82;;;;;;;21.34;97.58;99897.09;5074698;28;20051;-82
2021/06/21 03:56:19;;;;;;;12.93;10.95;;;;;;;21.39;95.88;99900.94;5059200;28;20048;-82
2021/06/21 03:58:48;;;;;;;22.15;12.50;;;;;;;21.51;94.89;99892.47;5093183;28;20040;-80
2021/06/21 04:01:16;;;;;;;17.92;11.45;;;;;;;21.47;95.95;99890.13;5058685;28;20053;-83
2021/06/21 04:03:45;;;;;;;14.82;12.95;;;;;;;21.32;97.89;99878.56;5038421;28;20060;-82
2021/06/21 04:06:13;;;;;;;23.00;14.65;;;;;;;21.30;97.05;99874.34;5049413;28;20131;-83
2021/06/21 04:08:41;;;;;;;18.80;16.70;;;;;;;21.40;98.23;99872.31;5071640;28;20058;-88
2021/06/21 04:11:09;;;;;;;27.75;16.38;;;;;;;21.31;96.16;99868.00;5067408;28;20054;-80
2021/06/21 04:13:37;;;;;;;22.88;16.35;;;;;;;21.38;96.02;99868.97;5062175;28;20197;-85
2021/06/21 04:16:04;;;;;;;23.20;17.58;;;;;;;21.40;96.80;99864.28;5081236;28;20186;-83
2021/06/21 04:18:32;;;;;;;25.95;16.80;;;;;;;21.44;96.09;99861.06;5053393;28;20058;-84
2021/06/21 04:20:59;;;;;;;19.75;14.68;;;;;;;21.66;90.81;99845.97;5077179;28;20097;-83
2021/06/21 04:23:27;;;;;;;21.58;14.85;;;;;;;21.70;89.83;99833.91;5070635;28;20064;-83
2021/06/21 04:25:55;;;;;;;16.88;13.32;;;;;;;21.73;88.50;99828.16;5082536;28;20052;-83
2021/06/21 04:28:22;;;;;;;19.17;13.85;;;;;;;21.49;88.51;99813.16;5028457;28;20125;-81
2021/06/21 04:30:50;;;;;;;22.05;14.43;;;;;;;21.46;89.35;99804.63;5064060;28;20058;-87
2021/06/21 04:33:18;;;;;;;19.95;13.80;;;;;;;21.37;nan;99795.00;5035941;28;20042;-84
2021/06/21 04:35:46;;;;;;;16.85;12.90;;;;;;;21.32;89.55;99792.88;5067316;28;20037;-86
2021/06/21 04:38:16;;;;;;;22.08;13.05;;;;;;;21.20;89.23;99783.56;5077231;28;20048;-84
2021/06/21 04:40:44;;;;;;;17.67;12.70;;;;;;;21.30;88.80;99775.28;5051226;28;20040;-83
2021/06/21 04:43:11;;;;;;;18.20;12.55;;;;;;;21.29;88.35;99777.13;5053439;28;20044;-81
2021/06/21 04:45:39;;;;;;;23.42;13.77;;;;;;;21.26;88.52;99782.03;5039061;28;20127;-83
2021/06/21 04:48:07;;;;;;;17.67;12.05;;;;;;;21.19;88.47;99793.44;5056716;28;20040;-80
2021/06/21 04:50:36;;;;;;;18.75;12.38;;;;;;;21.18;88.28;99790.97;5054488;28;20611;-77
2021/06/21 04:53:04;;;;;;;15.35;12.07;;;;;;;21.20;88.12;99786.25;5060537;28;20052;-77
2021/06/21 04:55:32;;;;;;;18.17;12.90;;;;;;;21.27;87.55;99789.03;5056641;28;20066;-75
2021/06/21 04:57:59;;;;;;;38.35;12.52;;;;;;;21.29;87.04;99777.13;5061396;28;20040;-81
2021/06/21 05:00:27;;;;;;;19.23;12.05;;;;;;;21.33;86.42;99777.66;5060941;28;20055;-82
2021/06/21 05:02:55;;;;;;;19.08;13.35;;;;;;;21.31;87.00;99766.25;5071481;28;20032;-82
2021/06/21 05:05:25;;;;;;;18.88;12.30;;;;;;;21.40;85.95;99767.88;5057457;28;20097;-81
2021/06/21 05:07:54;;;;;;;17.35;12.35;;;;;;;21.49;85.67;99766.78;5057803;28;20053;-83
2021/06/21 05:10:25;;;;;;;21.05;12.70;;;;;;;21.45;85.18;99760.97;5044165;28;20037;-82
2021/06/21 05:12:55;;;;;;;20.35;12.38;;;;;;;21.44;85.31;99745.09;5044912;28;20040;-81
2021/06/21 05:15:48;;;;;;;12.45;11.05;;;;;;;21.44;85.46;99727.19;5072638;28;20294;-82
2021/06/21 05:18:18;;;;;;;16.38;11.20;;;;;;;21.38;85.07;99725.22;5050086;28;20439;-80
2021/06/21 05:20:45;;;;;;;18.90;11.95;;;;;;;21.41;84.42;99716.81;5059745;28;20093;-81
2021/06/21 05:23:13;;;;;;;16.42;11.63;;;;;;;21.44;84.57;99712.97;5044599;28;20050;-78
2021/06/21 05:25:41;;;;;;;15.80;11.40;;;;;;;21.61;83.84;99702.88;5050873;28;20118;-79
2021/06/21 05:28:11;;;;;;;14.57;10.80;;;;;;;21.56;83.84;99716.81;5081120;28;20051;-82
2021/06/21 05:30:39;;;;;;;16.77;11.52;;;;;;;21.69;83.39;99724.22;5056816;28;20196;-87
2021/06/21 05:33:06;;;;;;;14.80;12.20;;;;;;;21.86;81.84;99725.72;5066284;28;20097;-82
2021/06/21 05:35:36;;;;;;;12.95;10.65;;;;;;;22.11;81.58;99728.94;5026305;28;20055;-80
2021/06/21 05:38:04;;;;;;;17.55;11.35;;;;;;;22.30;80.12;99738.28;5055167;28;20036;-79
2021/06/21 05:40:31;;;;;;;14.30;10.65;;;;;;;23.12;76.62;99748.66;5044161;28;20050;-78
2021/06/21 05:42:59;;;;;;;13.90;10.32;;;;;;;23.97;72.15;99738.75;5067877;28;20581;-80
2021/06/21 05:45:26;;;;;;;16.00;11.00;;;;;;;24.76;68.48;99749.00;5060494;28;20051;-79
2021/06/21 05:47:55;;;;;;;14.05;10.73;;;;;;;25.32;65.51;99764.84;5062567;28;20056;-79
2021/06/21 05:50:23;;;;;;;13.63;10.52;;;;;;;25.26;65.66;99779.13;5071385;28;20036;-79
2021/06/21 05:52:50;;;;;;;13.63;10.68;;;;;;;25.13;66.11;99784.53;5047598;28;20058;-79
2021/06/21 05:55:19;;;;;;;12.88;10.43;;;;;;;24.88;67.06;99770.78;5066346;28;20047;-82
2021/06/21 05:57:47;;;;;;;13.95;10.40;;;;;;;24.92;67.45;99774.72;5065223;28;20159;-81
2021/06/21 06:00:15;;;;;;;16.98;10.90;;;;;;;24.82;66.98;99776.97;5063260;28;20056;-78
2021/06/21 06:02:44;;;;;;;16.55;10.05;;;;;;;24.91;66.86;99790.03;5065218;28;20056;-83
2021/06/21 06:05:13;;;;;;;17.73;11.90;;;;;;;26.92;60.66;99784.13;5071322;28;20525;-84
2021/06/21 06:07:42;;;;;;;22.13;11.57;;;;;;;27.76;57.42;99786.41;5062742;28;20079;-83
2021/06/21 06:10:10;;;;;;;17.08;11.10;;;;;;;29.15;52.85;99797.44;5036594;28;20061;-82
2021/06/21 06:12:38;;;;;;;15.45;11.18;;;;;;;30.94;46.81;99802.28;5071355;28;20045;-82
2021/06/21 06:15:06;;;;;;;20.33;10.80;;;;;;;31.34;45.94;99808.69;5039768;28;20063;-84
2021/06/21 06:17:34;;;;;;;16.27;11.05;;;;;;;31.86;43.80;99822.06;5054053;28;20071;-84
2021/06/21 06:21:00;;;;;;;18.05;11.30;;;;;;;33.49;40.67;99816.63;5089887;28;20528;-85
2021/06/21 06:24:27;;;;;;;17.55;10.70;;;;;;;33.51;39.97;99825.41;5069244;28;20506;-84
2021/06/21 06:27:11;;;;;;;16.02;10.07;;;;;;;33.34;40.32;99824.69;5021270;28;20079;-81
2021/06/21 06:29:40;;;;;;;23.90;12.40;;;;;;;34.81;37.67;99823.94;5073890;28;20201;-84
2021/06/21 06:32:08;;;;;;;17.75;11.10;;;;;;;35.31;36.83;99816.94;5043517;28;20056;-81
2021/06/21 06:34:36;;;;;;;15.93;11.05;;;;;;;33.67;39.39;99828.22;5070558;28;20392;-84
2021/06/21 06:37:04;;;;;;;22.98;12.30;;;;;;;30.68;45.46;99828.09;5064973;28;20040;-79
2021/06/21 06:39:32;;;;;;;25.98;12.45;;;;;;;30.36;47.39;99845.91;5083722;28;20396;-84
2021/06/21 06:42:00;;;;;;;14.88;10.63;;;;;;;32.54;42.96;99847.25;5074568;28;20053;-83
2021/06/21 06:44:28;;;;;;;18.10;10.80;;;;;;;33.04;41.68;99847.03;5087669;28;20052;-83
2021/06/21 06:46:55;;;;;;;13.98;10.75;;;;;;;34.54;38.96;99839.69;5051397;28;20056;-81
2021/06/21 06:49:26;;;;;;;18.55;10.00;;;;;;;36.36;35.55;99845.56;5071749;28;20074;-84
2021/06/21 06:51:55;;;;;;;21.38;11.05;;;;;;;36.48;34.09;99846.09;5046696;28;20041;-82
2021/06/21 06:54:28;;;;;;;21.80;9.93;;;;;;;34.48;37.64;99853.34;5058804;28;20037;-83
2021/06/21 06:57:00;;;;;;;;;;;;;;;34.20;38.44;99849.09;5049889;28;20544;-83
2021/06/21 06:59:34;;;;;;;18.80;10.80;;;;;;;34.90;36.99;99841.47;5044402;28;19924;-82
2021/06/21 07:02:07;;;;;;;15.07;10.43;;;;;;;34.94;36.76;99845.28;5043058;28;20070;-83
2021/06/21 07:04:36;;;;;;;17.08;11.07;;;;;;;35.38;35.97;99842.09;5069241;28;20051;-82
2021/06/21 07:07:05;;;;;;;16.85;10.07;;;;;;;35.06;36.36;99841.53;5068336;28;20028;-81
2021/06/21 07:09:35;;;;;;;15.30;10.52;;;;;;;35.59;35.17;99821.06;5078690;28;20108;-81
2021/06/21 07:12:03;;;;;;;12.20;9.25;;;;;;;36.96;33.57;99822.53;5062110;28;20455;-82
2021/06/21 07:14:31;;;;;;;17.10;11.88;;;;;;;35.34;35.26;99831.97;5062739;28;20376;-82
2021/06/21 07:16:58;;;;;;;16.95;11.55;;;;;;;35.25;35.87;99832.50;5060759;28;20040;-84
2021/06/21 07:19:50;;;;;;;12.40;10.20;;;;;;;36.17;33.67;99823.44;5081950;28;20445;-82
2021/06/21 07:22:30;;;;;;;17.08;11.75;;;;;;;37.46;31.93;99825.22;5059439;28;20461;-84
2021/06/21 07:24:58;;;;;;;15.88;10.98;;;;;;;37.91;31.29;99823.16;5069074;28;20044;-85
2021/06/21 07:27:26;;;;;;;18.60;11.38;;;;;;;38.25;30.13;99834.06;5053249;28;20592;-86
2021/06/21 07:29:54;;;;;;;15.95;13.15;;;;;;;37.03;32.27;99818.69;5050701;28;20063;-83
2021/06/21 07:32:25;;;;;;;15.80;11.52;;;;;;;37.22;32.33;99823.19;5047677;28;20064;-82
2021/06/21 07:34:52;;;;;;;18.90;11.82;;;;;;;35.99;34.13;99838.56;5063201;28;20048;-83
2021/06/21 07:37:20;;;;;;;17.38;11.45;;;;;;;35.50;35.09;99845.41;5055902;28;20044;-83
2021/06/21 07:39:48;;;;;;;18.27;11.95;;;;;;;33.53;39.22;99846.97;5032981;28;20142;-83
2021/06/21 07:42:16;;;;;;;15.27;10.60;;;;;;;35.76;35.22;99848.16;5064250;28;20047;-81
2021/06/21 07:44:43;;;;;;;13.82;9.40;;;;;;;37.25;32.57;99841.00;5033611;28;20067;-83
2021/06/21 07:47:11;;;;;;;18.00;10.68;;;;;;;37.39;31.63;99847.53;5046533;28;20051;-83
2021/06/21 07:49:39;;;;;;;18.83;11.32;;;;;;;37.12;32.46;99852.63;5074202;28;20091;-82
2021/06/21 07:52:06;;;;;;;14.35;11.20;;;;;;;38.80;30.29;99847.44;5059998;28;20321;-83
2021/06/21 07:54:34;;;;;;;19.42;11.30;;;;;;;39.18;29.17;99859.28;5078732;28;20081;-83
2021/06/21 07:57:01;;;;;;;14.65;11.07;;;;;;;39.88;27.65;99852.91;5060483;28;20045;-83
2021/06/21 07:59:29;;;;;;;19.60;12.85;;;;;;;38.85;29.23;99856.44;5053210;28;20135;-84
2021/06/21 08:01:56;;;;;;;21.13;10.63;;;;;;;38.97;29.57;99856.00;5061371;28;20048;-83
2021/06/21 08:04:24;;;;;;;15.32;10.32;;;;;;;39.76;28.03;99845.09;5083739;28;20044;-84
2021/06/21 08:06:51;;;;;;;19.80;10.60;;;;;;;39.61;28.39;99848.13;5057558;28;20052;-84
2021/06/21 08:09:19;;;;;;;14.32;9.20;;;;;;;38.98;28.77;99847.44;5080403;28;20051;-84
2021/06/21 08:11:47;;;;;;;17.90;10.80;;;;;;;38.91;29.29;99841.50;5075849;28;20044;-81
2021/06/21 08:14:15;;;;;;;13.73;10.02;;;;;;;39.29;28.74;99849.75;5063507;28;20579;-84
2021/06/21 08:16:42;;;;;;;13.70;9.40;;;;;;;40.22;27.61;99838.78;5062881;28;20059;-82
2021/06/21 08:19:10;;;;;;;11.55;8.57;;;;;;;39.84;27.82;99840.84;5054725;28;20047;-83
2021/06/21 08:21:38;;;;;;;14.93;7.40;;;;;;;40.50;26.54;99845.88;5072179;28;20093;-84
2021/06/21 08:24:10;;;;;;;12.15;7.78;;;;;;;39.12;28.37;99858.50;5059236;28;20429;-83
2021/06/21 08:26:38;;;;;;;12.15;6.60;;;;;;;39.21;27.94;99856.75;5059858;28;20058;-83
2021/06/21 08:29:05;;;;;;;10.40;6.47;;;;;;;39.30;27.65;99851.38;5047267;28;20056;-83
2021/06/21 08:31:33;;;;;;;11.77;7.35;;;;;;;37.71;29.82;99848.88;5066132;28;20048;-85
2021/06/21 08:34:01;;;;;;;14.05;6.63;;;;;;;37.16;30.50;99853.72;5077601;28;20158;-85
2021/06/21 08:36:31;;;;;;;10.77;6.05;;;;;;;36.02;32.63;99843.47;5053277;28;20037;-84
2021/06/21 08:38:59;;;;;;;8.88;5.28;;;;;;;35.03;34.43;99845.59;5044607;28;20059;-82
2021/06/21 08:41:26;;;;;;;13.02;5.85;;;;;;;34.39;35.86;99849.44;5048138;28;20230;-84
2021/06/21 08:43:54;;;;;;;17.73;5.43;;;;;;;34.46;35.16;99846.50;5059782;28;20044;-82
2021/06/21 08:46:21;;;;;;;11.68;5.65;;;;;;;33.67;36.85;99853.63;5074590;28;20425;-82
2021/06/21 08:48:49;;;;;;;11.35;4.85;;;;;;;33.87;36.61;99846.69;5066755;28;20048;-81
2021/06/21 08:51:17;;;;;;;15.35;6.05;;;;;;;33.41;37.16;99847.09;5071458;28;20044;-82
2021/06/21 08:53:44;;;;;;;11.50;5.22;;;;;;;33.39;36.41;99859.38;5066550;28;20052;-81
2021/06/21 08:56:12;;;;;;;14.60;5.65;;;;;;;32.81;37.90;99848.13;5071184;28;20131;-81
2021/06/21 08:58:41;;;;;;;13.20;5.30;;;;;;;32.44;38.73;99856.13;5045724;28;20044;-85
2021/06/21 09:01:08;;;;;;;15.52;7.32;;;;;;;31.99;39.88;99865.28;5070918;28;20082;-80
2021/06/21 09:03:36;;;;;;;9.00;4.15;;;;;;;32.12;39.11;99866.81;5049779;28;20370;-81
2021/06/21 09:06:17;;;;;;;9.23;4.03;;;;;;;32.15;38.72;99860.84;5020337;28;20044;-83
2021/06/21 09:08:55;;;;;;;10.30;3.97;;;;;;;31.95;39.08;99870.38;5059196;28;20048;-82
2021/06/21 09:11:45;;;;;;;18.75;4.35;;;;;;;32.09;38.51;99868.13;5057538;28;20048;-82
2021/06/21 09:14:24;;;;;;;11.85;3.45;;;;;;;31.47;40.34;99862.75;5058881;28;20197;-85
2021/06/21 09:16:53;;;;;;;7.47;3.28;;;;;;;31.51;39.11;99861.22;5058128;28;20430;-82
2021/06/21 09:19:21;;;;;;;6.95;3.28;;;;;;;31.26;39.27;99865.13;5062657;28;20056;-85
2021/06/21 09:21:48;;;;;;;6.70;2.90;;;;;;;31.80;38.37;99866.59;5069104;28;20059;-83
2021/06/21 09:24:19;;;;;;;7.38;3.13;;;;;;;31.18;39.13;99870.13;5072502;28;20497;-82
2021/06/21 09:26:50;;;;;;;5.18;2.70;;;;;;;31.05;40.37;99867.69;5074400;28;20098;-83
2021/06/21 09:29:35;;;;;;;6.03;2.30;;;;;;;31.06;40.25;99874.78;5054266;28;20040;-82
2021/06/21 09:32:39;;;;;;;12.98;2.90;;;;;;;31.01;40.74;99875.50;5045905;28;20119;-82
2021/06/21 09:35:09;;;;;;;11.27;2.38;;;;;;;31.18;39.93;99875.56;5072695;28;20418;-82
2021/06/21 09:37:46;;;;;;;7.68;2.50;;;;;;;31.21;40.04;99880.53;5045884;28;20068;-82
2021/06/21 09:40:28;;;;;;;7.10;2.92;;;;;;;31.27;39.76;99883.09;5059657;28;20131;-83
2021/06/21 09:42:56;;;;;;;13.77;3.40;;;;;;;31.33;39.36;99881.28;5057612;28;20053;-81
2021/06/21 09:45:24;;;;;;;9.13;2.15;;;;;;;31.13;40.26;99881.72;5047534;28;20041;-84
2021/06/21 09:47:52;;;;;;;5.68;1.90;;;;;;;31.22;39.74;99877.56;5032396;28;20109;-83
2021/06/21 09:50:19;;;;;;;5.55;2.38;;;;;;;31.76;38.52;99879.84;5053271;28;20170;-83
2021/06/21 09:52:59;;;;;;;5.15;1.98;;;;;;;31.85;38.23;99872.97;5063596;28;20032;-82
2021/06/21 09:55:40;;;;;;;6.43;2.65;;;;;;;31.99;38.36;99874.25;5075056;28;20052;-82
2021/06/21 09:58:10;;;;;;;8.77;3.22;;;;;;;32.02;38.12;99870.22;5056353;28;20052;-82
2021/06/21 10:00:47;;;;;;;8.20;2.78;;;;;;;31.69;39.03;99862.84;5064026;28;20036;-85
2021/06/21 10:03:17;;;;;;;5.95;2.42;;;;;;;31.65;38.68;99872.59;5057789;28;20121;-82
2021/06/21 10:06:00;;;;;;;9.40;2.63;;;;;;;31.29;39.78;99874.69;5045703;28;20413;-84
2021/06/21 10:08:50;;;;;;;9.40;3.47;;;;;;;31.19;39.89;99871.75;5050578;28;20052;-82
2021/06/21 10:11:38;;;;;;;4.88;2.70;;;;;;;31.15;39.87;99879.56;5032768;28;20032;-82
2021/06/21 10:14:08;;;;;;;11.15;3.08;;;;;;;31.59;39.40;99874.41;5062803;28;20052;-82
2021/06/21 10:16:37;;;;;;;9.55;3.00;;;;;;;31.64;39.28;99871.75;5060015;28;20048;-83
2021/06/21 10:19:05;;;;;;;5.95;2.80;;;;;;;31.75;38.44;99870.88;5066706;28;20393;-83
2021/06/21 10:21:35;;;;;;;11.52;3.35;;;;;;;31.85;38.92;99880.31;5049824;28;20046;-82
2021/06/21 10:24:03;;;;;;;10.45;3.65;;;;;;;32.16;38.53;99868.78;5041647;28;20538;-85
2021/06/21 10:26:31;;;;;;;6.35;3.40;;;;;;;31.96;38.51;99863.84;5053754;28;20476;-83
2021/06/21 10:28:58;;;;;;;12.73;3.20;;;;;;;31.74;39.34;99882.81;5066706;28;20100;-81
2021/06/21 10:31:29;;;;;;;8.43;3.38;;;;;;;31.84;39.35;99882.22;5056529;28;20054;-80
2021/06/21 10:34:02;;;;;;;12.35;3.78;;;;;;;31.64;39.93;99885.38;5038454;28;20233;-85
2021/06/21 10:36:46;;;;;;;8.70;3.80;;;;;;;31.19;40.66;99888.91;5054804;28;20109;-81
2021/06/21 10:39:18;;;;;;;20.40;3.85;;;;;;;31.15;41.25;99890.44;5063136;28;20548;-83
2021/06/21 10:42:04;;;;;;;20.55;3.88;;;;;;;30.89;42.08;99888.31;5056721;28;20044;-83
2021/06/21 10:44:49;;;;;;;10.57;3.13;;;;;;;31.44;40.74;99882.31;5072693;28;20044;-84
2021/06/21 10:47:35;;;;;;;8.63;3.50;;;;;;;31.66;40.47;99874.25;5069354;28;20047;-80
2021/06/21 10:50:15;;;;;;;8.18;3.42;;;;;;;31.85;39.93;99881.13;5058467;28;20447;-80
2021/06/21 10:52:47;;;;;;;10.48;3.17;;;;;;;31.91;40.56;99874.69;5057163;28;20090;-81
2021/06/21 10:55:27;;;;;;;4.82;2.92;;;;;;;31.90;40.48;99886.66;5058537;28;20036;-82
2021/06/21 10:58:00;;;;;;;9.38;2.95;;;;;;;31.57;41.53;99884.72;5056357;28;20048;-83
2021/06/21 11:00:45;;;;;;;7.10;3.30;;;;;;;31.38;41.43;99872.41;5046193;28;20047;-81
2021/06/21 11:03:23;;;;;;;11.93;3.30;;;;;;;31.65;41.81;99876.13;5064895;28;20036;-83
2021/06/21 11:06:04;;;;;;;7.05;3.85;;;;;;;31.59;42.05;99879.03;5066409;28;20063;-80
2021/06/21 11:08:46;;;;;;;9.38;3.38;;;;;;;31.80;41.38;99872.03;5055605;28;20051;-81
2021/06/21 11:11:43;;;;;;;9.30;3.67;;;;;;;31.44;41.92;99879.59;5053276;28;20056;-86
2021/06/21 11:14:23;;;;;;;8.55;3.50;;;;;;;30.97;42.05;99875.16;5073832;28;20071;-82
2021/06/21 11:17:18;;;;;;;5.60;3.35;;;;;;;31.17;40.81;99868.47;5069634;28;20532;-83
2021/06/21 11:19:45;;;;;;;6.73;3.30;;;;;;;31.20;41.30;99862.53;5079686;28;20142;-82
2021/06/21 11:22:14;;;;;;;13.35;3.58;;;;;;;31.43;40.82;99867.03;5081161;28;20551;-81
2021/06/21 11:24:47;;;;;;;12.50;3.50;;;;;;;31.32;41.21;99862.50;5065275;28;20044;-81
2021/06/21 11:27:15;;;;;;;10.23;3.10;;;;;;;31.09;41.68;99874.31;5077567;28;20048;-82
2021/06/21 11:29:45;;;;;;;15.57;3.75;;;;;;;31.26;41.33;99865.13;5063148;28;20071;-81
2021/06/21 11:32:14;;;;;;;15.15;3.75;;;;;;;31.25;41.66;99866.19;5027620;28;20052;-81
2021/06/21 11:34:55;;;;;;;8.50;2.90;;;;;;;31.10;41.09;99857.75;5056653;28;20062;-83
2021/06/21 11:37:37;;;;;;;7.93;3.17;;;;;;;30.75;41.33;99864.13;5042722;28;20097;-80
2021/06/21 11:40:21;;;;;;;7.85;3.10;;;;;;;30.90;42.10;99860.09;5082596;28;20036;-81
2021/06/21 11:43:01;;;;;;;10.57;3.33;;;;;;;30.39;43.39;99859.00;5065389;28;20048;-81
2021/06/21 11:45:45;;;;;;;7.20;2.70;;;;;;;30.87;41.96;99844.25;5076729;28;20059;-81
2021/06/21 11:48:26;;;;;;;6.10;2.95;;;;;;;30.87;41.65;99852.41;5076585;28;20043;-81